createdAt,value
2023-03-03T00:02:38.826Z,21.02
2023-03-03T00:07:37.602Z,21.38
2023-03-03T00:12:48.503Z,21.30
2023-03-03T00:17:48.971Z,23.20
2023-03-03T00:22:47.938Z,20.13
2023-03-03T00:27:46.701Z,22.58
2023-03-03T00:32:50.438Z,22.35
2023-03-03T00:37:56.982Z,21.58
2023-03-03T00:42:58.528Z,22.98
2023-03-03T00:47:59.525Z,22.45
2023-03-03T00:53:03.816Z,22.80
2023-03-03T00:58:02.936Z,21.17
2023-03-03T01:03:09.294Z,22.50
2023-03-03T01:08:08.208Z,21.58
2023-03-03T01:13:07.940Z,20.90
2023-03-03T01:18:08.783Z,22.55
2023-03-03T01:23:08.098Z,20.92
2023-03-03T01:28:07.187Z,21.48
2023-03-03T01:33:07.541Z,23.85
2023-03-03T01:38:06.387Z,20.88
2023-03-03T01:43:05.423Z,21.23
2023-03-03T01:48:11.753Z,23.08
2023-03-03T01:53:17.218Z,23.05
2023-03-03T01:58:21.082Z,20.77
2023-03-03T02:03:23.688Z,22.85
2023-03-03T02:08:29.202Z,25.37
2023-03-03T02:13:28.063Z,24.27
2023-03-03T02:18:28.974Z,24.88
2023-03-03T02:23:35.717Z,22.60
2023-03-03T02:28:37.797Z,24.00
2023-03-03T02:33:39.367Z,22.75
2023-03-03T02:38:45.669Z,22.30
2023-03-03T02:43:52.143Z,22.00
2023-03-03T02:48:51.233Z,22.70
2023-03-03T02:53:51.037Z,24.88
2023-03-03T02:58:51.628Z,24.38
2023-03-03T03:03:51.092Z,22.48
2023-03-03T03:08:53.128Z,23.45
2023-03-03T03:13:54.573Z,22.95
2023-03-03T03:24:09.542Z,23.40
2023-03-03T03:29:12.455Z,26.20
2023-03-03T03:34:11.532Z,24.60
2023-03-03T03:39:10.769Z,22.95
2023-03-03T03:44:15.372Z,22.77
2023-03-03T03:49:14.791Z,24.80
2023-03-03T03:54:14.195Z,23.65
2023-03-03T03:59:15.581Z,24.15
2023-03-03T04:04:14.900Z,23.48
2023-03-03T04:09:14.727Z,22.17
2023-03-03T04:14:15.764Z,22.85
2023-03-03T04:19:14.976Z,22.83
2023-03-03T04:24:15.196Z,21.85
2023-03-03T04:29:49.991Z,21.80
2023-03-03T04:34:53.144Z,22.98
2023-03-03T04:39:58.306Z,22.88
2023-03-03T04:44:58.863Z,20.13
2023-03-03T04:49:57.906Z,22.83
2023-03-03T04:54:57.252Z,22.30
2023-03-03T04:59:58.107Z,23.60
2023-03-03T05:04:57.649Z,22.67
2023-03-03T05:09:56.470Z,22.35
2023-03-03T05:14:55.351Z,24.17
2023-03-03T05:19:57.360Z,21.98
2023-03-03T05:24:56.163Z,23.17
2023-03-03T05:29:54.914Z,23.33
2023-03-03T05:34:55.067Z,24.73
2023-03-03T05:39:53.889Z,24.08
2023-03-03T05:44:52.758Z,24.70
2023-03-03T05:50:06.701Z,30.30
2023-03-03T05:55:09.166Z,25.52
2023-03-03T06:00:20.025Z,26.38
2023-03-03T06:05:20.399Z,28.45
2023-03-03T06:10:19.332Z,41.20
2023-03-03T06:20:39.819Z,36.17
2023-03-03T06:25:40.515Z,62.97
2023-03-03T06:30:39.330Z,43.35
2023-03-03T06:35:39.638Z,32.97
2023-03-03T06:40:38.501Z,30.58
2023-03-03T06:45:37.322Z,27.48
2023-03-03T06:50:36.167Z,26.52
2023-03-03T06:55:36.339Z,28.30
2023-03-03T07:00:36.548Z,26.70
2023-03-03T07:05:35.504Z,26.58
2023-03-03T07:10:34.362Z,24.40
2023-03-03T07:15:37.131Z,25.30
2023-03-03T07:20:40.118Z,23.70
2023-03-03T07:25:39.429Z,23.88
2023-03-03T07:30:39.953Z,24.38
2023-03-03T07:35:42.047Z,25.90
2023-03-03T07:40:48.839Z,25.67
2023-03-03T07:45:49.358Z,24.23
2023-03-03T07:50:50.042Z,23.60
2023-03-03T07:55:48.844Z,25.58
2023-03-03T08:01:29.532Z,24.58
2023-03-03T08:06:49.531Z,23.92
2023-03-03T08:11:52.904Z,24.23
2023-03-03T08:21:51.492Z,25.25
2023-03-03T08:26:51.082Z,28.75
2023-03-03T08:31:49.851Z,26.75
2023-03-03T08:36:49.666Z,25.63
2023-03-03T08:41:49.827Z,25.52
2023-03-03T08:46:54.996Z,26.33
2023-03-03T08:51:54.750Z,25.45
2023-03-03T08:56:54.951Z,24.15
2023-03-03T09:01:53.827Z,23.63
2023-03-03T09:06:52.590Z,25.60
2023-03-03T09:11:51.495Z,24.98
2023-03-03T09:16:53.374Z,24.08
2023-03-03T09:21:55.018Z,24.27
2023-03-03T09:26:56.183Z,24.75
2023-03-03T09:31:59.096Z,26.17
2023-03-03T09:42:14.078Z,23.77
2023-03-03T09:47:31.168Z,23.63
2023-03-03T09:52:41.140Z,26.45
2023-03-03T09:58:09.970Z,22.90
2023-03-03T10:03:58.281Z,25.75
2023-03-03T10:09:31.905Z,25.45
2023-03-03T10:19:47.946Z,26.23
2023-03-03T10:24:57.868Z,24.17
2023-03-03T10:30:03.973Z,25.88
2023-03-03T10:35:20.630Z,25.25
2023-03-03T10:40:28.394Z,26.38
2023-03-03T10:45:52.092Z,25.95
2023-03-03T10:51:01.562Z,24.65
2023-03-03T10:56:16.557Z,25.88
2023-03-03T11:01:26.905Z,24.90
2023-03-03T11:06:35.176Z,24.02
2023-03-03T11:11:43.607Z,24.02
2023-03-03T11:16:50.769Z,27.23
2023-03-03T11:21:57.567Z,23.60
2023-03-03T11:27:12.478Z,23.90
2023-03-03T11:32:22.989Z,23.08
2023-03-03T11:37:30.179Z,24.23
2023-03-03T11:42:37.072Z,36.08
2023-03-03T11:47:43.590Z,52.72
2023-03-03T11:52:50.141Z,56.30
2023-03-03T11:57:57.294Z,45.17
2023-03-03T12:03:11.520Z,85.82
2023-03-03T12:08:23.362Z,27.73
2023-03-03T12:13:28.154Z,36.40
2023-03-03T12:18:43.354Z,34.75
2023-03-03T12:24:04.510Z,28.33
2023-03-03T12:29:13.805Z,24.08
2023-03-03T12:34:21.038Z,27.73
2023-03-03T12:39:37.972Z,28.25
2023-03-03T12:44:45.992Z,28.13
2023-03-03T12:50:06.587Z,28.98
2023-03-03T12:55:20.877Z,29.10
2023-03-03T13:00:26.783Z,30.63
2023-03-03T13:05:30.255Z,30.35
2023-03-03T13:10:39.044Z,27.75
2023-03-03T13:15:54.856Z,29.20
2023-03-03T13:21:01.561Z,26.77
2023-03-03T13:26:09.266Z,28.48
2023-03-03T13:31:14.235Z,28.23
2023-03-03T13:36:16.191Z,29.58
2023-03-03T13:41:24.935Z,29.65
2023-03-03T13:46:35.319Z,26.92
2023-03-03T13:51:43.584Z,26.90
2023-03-03T13:57:05.398Z,28.10
2023-03-03T14:02:26.201Z,30.55
2023-03-03T14:07:29.735Z,29.15
2023-03-03T14:12:42.125Z,29.67
2023-03-03T14:17:55.078Z,30.08
2023-03-03T14:22:57.650Z,31.05
2023-03-03T14:28:05.943Z,31.50
2023-03-03T14:33:24.072Z,34.13
2023-03-03T14:38:26.006Z,32.38
2023-03-03T14:43:28.112Z,36.22
2023-03-03T14:48:27.773Z,35.67
2023-03-03T14:53:34.446Z,36.20
2023-03-03T14:58:40.559Z,34.95
2023-03-03T15:03:39.388Z,32.80
2023-03-03T15:08:38.288Z,31.17
2023-03-03T15:13:40.005Z,32.28
2023-03-03T15:19:00.555Z,33.85
2023-03-03T15:24:06.839Z,35.17
2023-03-03T15:29:12.649Z,33.20
2023-03-03T15:34:30.956Z,33.47
2023-03-03T15:39:42.874Z,31.58
2023-03-03T15:44:57.400Z,72.75
2023-03-03T15:50:07.429Z,40.22
2023-03-03T15:55:27.497Z,38.75
2023-03-03T16:00:38.880Z,32.33
2023-03-03T16:05:47.665Z,31.33
2023-03-03T16:10:58.364Z,31.48
2023-03-03T16:16:12.468Z,32.25
2023-03-03T16:21:30.865Z,30.35
2023-03-03T16:26:40.190Z,31.08
2023-03-03T16:31:49.068Z,35.55
2023-03-03T16:37:01.637Z,33.25
2023-03-03T16:42:07.118Z,34.67
2023-03-03T16:47:20.399Z,34.92
2023-03-03T16:52:26.784Z,38.78
2023-03-03T16:57:33.703Z,39.05
2023-03-03T17:03:08.254Z,36.92
2023-03-03T17:08:39.223Z,41.92
2023-03-03T17:14:08.830Z,38.42
2023-03-03T17:19:18.970Z,35.50
2023-03-03T17:24:25.449Z,36.90
2023-03-03T17:29:48.712Z,36.90
2023-03-03T17:35:06.661Z,37.33
2023-03-03T17:40:19.605Z,39.97
2023-03-03T17:45:21.592Z,41.20
2023-03-03T17:50:43.281Z,36.58
2023-03-03T17:56:04.735Z,36.85
2023-03-03T18:01:16.560Z,41.72
2023-03-03T18:06:55.914Z,37.58
2023-03-03T18:12:13.173Z,38.85
2023-03-03T18:17:50.269Z,35.83
2023-03-03T18:22:53.932Z,34.65
2023-03-03T18:28:21.368Z,34.97
2023-03-03T18:33:37.865Z,36.13
2023-03-03T18:38:41.777Z,33.60
2023-03-03T18:43:58.234Z,33.53
2023-03-03T18:49:03.473Z,34.63
2023-03-03T18:54:07.609Z,34.25
2023-03-03T18:59:10.179Z,35.45
2023-03-03T19:04:25.473Z,36.10
2023-03-03T19:09:52.591Z,37.53
2023-03-03T19:14:51.439Z,38.17
2023-03-03T19:20:07.070Z,35.45
2023-03-03T19:25:18.841Z,36.53
2023-03-03T19:30:37.552Z,36.05
2023-03-03T19:35:54.707Z,36.15
2023-03-03T19:41:01.032Z,36.25
2023-03-03T19:46:17.016Z,35.38
2023-03-03T19:51:26.946Z,35.05
2023-03-03T19:56:38.146Z,34.97
2023-03-03T20:01:49.552Z,36.58
2023-03-03T20:07:08.522Z,36.60
2023-03-03T20:12:20.847Z,36.83
2023-03-03T20:17:43.959Z,37.20
2023-03-03T20:22:52.520Z,39.25
2023-03-03T20:28:00.243Z,40.55
2023-03-03T20:33:12.552Z,39.47
2023-03-03T20:38:26.822Z,40.55
2023-03-03T20:43:43.086Z,40.13
2023-03-03T20:49:03.164Z,40.65
2023-03-03T20:54:13.381Z,38.63
2023-03-03T20:59:21.839Z,38.10
2023-03-03T21:04:24.075Z,38.28
2023-03-03T21:09:30.646Z,37.53
2023-03-03T21:14:31.622Z,37.75
2023-03-03T21:19:32.563Z,36.22
2023-03-03T21:24:54.482Z,37.38
2023-03-03T21:30:04.697Z,38.22
2023-03-03T21:35:08.663Z,36.60
2023-03-03T21:40:20.798Z,36.63
2023-03-03T21:45:21.385Z,37.03
2023-03-03T21:50:21.566Z,37.10
2023-03-03T21:55:21.768Z,37.97
2023-03-03T22:00:21.660Z,36.38
2023-03-03T22:05:20.464Z,35.78
2023-03-03T22:10:19.323Z,34.97
2023-03-03T22:15:19.616Z,35.25
2023-03-03T22:20:18.675Z,34.95
2023-03-03T22:25:17.679Z,35.67
2023-03-03T22:30:16.980Z,34.83
2023-03-03T22:35:19.660Z,36.53
2023-03-03T22:40:18.924Z,39.85
2023-03-03T22:45:17.853Z,35.85
2023-03-03T22:50:19.464Z,37.05
2023-03-03T22:55:18.339Z,37.42
2023-03-03T23:00:17.652Z,37.88
2023-03-03T23:05:16.338Z,37.42
2023-03-03T23:10:16.592Z,40.42
2023-03-03T23:15:15.958Z,38.20
2023-03-03T23:20:16.558Z,37.58
2023-03-03T23:25:17.149Z,39.60
2023-03-03T23:30:17.979Z,38.20
2023-03-03T23:35:17.315Z,38.33
2023-03-03T23:40:18.608Z,38.53
2023-03-03T23:45:17.728Z,38.53
2023-03-03T23:50:16.731Z,37.17
2023-03-03T23:55:15.528Z,35.22
